sensor_id;sensor_type;location;lat;lon;timestamp;P1;durP1;ratioP1;P2;durP2;ratioP2
13641;SDS011;6894;52.196;9.904;2023-06-22T00:02:04;9.53;;;8.53;;
13641;SDS011;6894;52.196;9.904;2023-06-22T00:04:31;8.13;;;7.40;;
13641;SDS011;6894;52.196;9.904;2023-06-22T00:06:59;9.13;;;7.47;;
13641;SDS011;6894;52.196;9.904;2023-06-22T00:09:26;10.43;;;8.50;;
13641;SDS011;6894;52.196;9.904;2023-06-22T00:11:53;8.27;;;7.47;;
13641;SDS011;6894;52.196;9.904;2023-06-22T00:14:19;7.83;;;7.10;;
13641;SDS011;6894;52.196;9.904;2023-06-22T00:16:46;9.53;;;8.03;;
13641;SDS011;6894;52.196;9.904;2023-06-22T00:19:13;7.23;;;6.53;;
13641;SDS011;6894;52.196;9.904;2023-06-22T00:21:40;7.60;;;6.90;;
13641;SDS011;6894;52.196;9.904;2023-06-22T00:24:09;7.23;;;6.53;;
13641;SDS011;6894;52.196;9.904;2023-06-22T00:26:35;8.53;;;7.60;;
13641;SDS011;6894;52.196;9.904;2023-06-22T00:29:02;8.20;;;7.50;;
13641;SDS011;6894;52.196;9.904;2023-06-22T00:31:29;7.50;;;6.80;;
13641;SDS011;6894;52.196;9.904;2023-06-22T00:33:56;8.23;;;7.33;;
13641;SDS011;6894;52.196;9.904;2023-06-22T00:36:22;7.73;;;7.13;;
13641;SDS011;6894;52.196;9.904;2023-06-22T00:38:49;7.73;;;6.97;;
13641;SDS011;6894;52.196;9.904;2023-06-22T00:41:17;7.80;;;7.20;;
13641;SDS011;6894;52.196;9.904;2023-06-22T00:43:44;8.50;;;7.70;;
13641;SDS011;6894;52.196;9.904;2023-06-22T00:46:11;10.47;;;7.50;;
13641;SDS011;6894;52.196;9.904;2023-06-22T00:48:38;8.10;;;7.33;;
13641;SDS011;6894;52.196;9.904;2023-06-22T00:51:06;9.17;;;8.07;;
13641;SDS011;6894;52.196;9.904;2023-06-22T00:53:33;8.37;;;7.50;;
13641;SDS011;6894;52.196;9.904;2023-06-22T00:56:02;9.27;;;8.10;;
13641;SDS011;6894;52.196;9.904;2023-06-22T00:58:30;8.87;;;7.93;;
13641;SDS011;6894;52.196;9.904;2023-06-22T01:00:57;9.87;;;9.03;;
13641;SDS011;6894;52.196;9.904;2023-06-22T01:03:24;11.07;;;9.47;;
13641;SDS011;6894;52.196;9.904;2023-06-22T01:05:51;9.63;;;8.73;;
13641;SDS011;6894;52.196;9.904;2023-06-22T01:08:23;10.33;;;9.50;;
13641;SDS011;6894;52.196;9.904;2023-06-22T01:10:57;10.73;;;9.63;;
13641;SDS011;6894;52.196;9.904;2023-06-22T01:13:32;10.03;;;8.63;;
13641;SDS011;6894;52.196;9.904;2023-06-22T01:16:05;10.00;;;9.10;;
13641;SDS011;6894;52.196;9.904;2023-06-22T01:18:36;10.03;;;9.03;;
13641;SDS011;6894;52.196;9.904;2023-06-22T01:21:08;9.30;;;8.40;;
13641;SDS011;6894;52.196;9.904;2023-06-22T01:23:42;9.50;;;8.50;;
13641;SDS011;6894;52.196;9.904;2023-06-22T01:26:25;9.40;;;8.50;;
13641;SDS011;6894;52.196;9.904;2023-06-22T01:29:03;11.00;;;8.37;;
13641;SDS011;6894;52.196;9.904;2023-06-22T01:31:32;10.03;;;8.43;;
13641;SDS011;6894;52.196;9.904;2023-06-22T01:34:01;13.07;;;10.10;;
13641;SDS011;6894;52.196;9.904;2023-06-22T01:36:29;10.10;;;9.20;;
13641;SDS011;6894;52.196;9.904;2023-06-22T01:38:58;10.60;;;9.63;;
13641;SDS011;6894;52.196;9.904;2023-06-22T01:41:26;11.73;;;10.20;;
13641;SDS011;6894;52.196;9.904;2023-06-22T01:43:55;11.57;;;10.37;;
13641;SDS011;6894;52.196;9.904;2023-06-22T01:46:23;10.30;;;8.70;;
13641;SDS011;6894;52.196;9.904;2023-06-22T01:48:50;9.47;;;8.47;;
13641;SDS011;6894;52.196;9.904;2023-06-22T01:51:18;11.30;;;10.40;;
13641;SDS011;6894;52.196;9.904;2023-06-22T01:53:45;11.90;;;10.80;;
13641;SDS011;6894;52.196;9.904;2023-06-22T01:56:13;15.43;;;10.47;;
13641;SDS011;6894;52.196;9.904;2023-06-22T01:58:48;15.20;;;10.43;;
13641;SDS011;6894;52.196;9.904;2023-06-22T02:01:24;12.60;;;9.90;;
13641;SDS011;6894;52.196;9.904;2023-06-22T02:04:02;14.30;;;10.13;;
13641;SDS011;6894;52.196;9.904;2023-06-22T02:06:33;11.20;;;10.10;;
13641;SDS011;6894;52.196;9.904;2023-06-22T02:09:06;10.80;;;9.70;;
13641;SDS011;6894;52.196;9.904;2023-06-22T02:11:35;10.30;;;9.33;;
13641;SDS011;6894;52.196;9.904;2023-06-22T02:14:03;11.30;;;10.20;;
13641;SDS011;6894;52.196;9.904;2023-06-22T02:16:33;10.53;;;9.43;;
13641;SDS011;6894;52.196;9.904;2023-06-22T02:19:00;10.63;;;8.73;;
13641;SDS011;6894;52.196;9.904;2023-06-22T02:21:29;9.77;;;8.07;;
13641;SDS011;6894;52.196;9.904;2023-06-22T02:23:56;11.93;;;8.37;;
13641;SDS011;6894;52.196;9.904;2023-06-22T02:26:22;13.00;;;8.27;;
13641;SDS011;6894;52.196;9.904;2023-06-22T02:28:50;14.07;;;9.20;;
13641;SDS011;6894;52.196;9.904;2023-06-22T02:31:17;13.60;;;8.77;;
13641;SDS011;6894;52.196;9.904;2023-06-22T02:33:46;10.00;;;8.57;;
13641;SDS011;6894;52.196;9.904;2023-06-22T02:36:13;12.80;;;9.00;;
13641;SDS011;6894;52.196;9.904;2023-06-22T02:38:40;11.27;;;8.57;;
13641;SDS011;6894;52.196;9.904;2023-06-22T02:41:10;14.03;;;8.90;;
13641;SDS011;6894;52.196;9.904;2023-06-22T02:43:38;14.20;;;9.63;;
13641;SDS011;6894;52.196;9.904;2023-06-22T02:46:04;10.33;;;9.27;;
13641;SDS011;6894;52.196;9.904;2023-06-22T02:48:31;11.37;;;8.97;;
13641;SDS011;6894;52.196;9.904;2023-06-22T02:50:59;10.73;;;9.70;;
13641;SDS011;6894;52.196;9.904;2023-06-22T02:53:26;9.97;;;9.03;;
13641;SDS011;6894;52.196;9.904;2023-06-22T02:55:52;10.90;;;9.90;;
13641;SDS011;6894;52.196;9.904;2023-06-22T02:58:19;10.77;;;9.67;;
13641;SDS011;6894;52.196;9.904;2023-06-22T03:00:46;14.17;;;8.43;;
13641;SDS011;6894;52.196;9.904;2023-06-22T03:03:13;9.50;;;8.53;;
13641;SDS011;6894;52.196;9.904;2023-06-22T03:05:39;14.33;;;8.50;;
13641;SDS011;6894;52.196;9.904;2023-06-22T03:08:07;14.67;;;9.37;;
13641;SDS011;6894;52.196;9.904;2023-06-22T03:10:34;9.90;;;8.47;;
13641;SDS011;6894;52.196;9.904;2023-06-22T03:13:01;10.87;;;7.97;;
13641;SDS011;6894;52.196;9.904;2023-06-22T03:15:28;16.37;;;9.30;;
13641;SDS011;6894;52.196;9.904;2023-06-22T03:17:56;14.63;;;8.50;;
13641;SDS011;6894;52.196;9.904;2023-06-22T03:20:23;12.50;;;9.03;;
13641;SDS011;6894;52.196;9.904;2023-06-22T03:22:51;11.70;;;8.40;;
13641;SDS011;6894;52.196;9.904;2023-06-22T03:25:20;13.57;;;9.10;;
13641;SDS011;6894;52.196;9.904;2023-06-22T03:27:46;15.47;;;10.47;;
13641;SDS011;6894;52.196;9.904;2023-06-22T03:30:14;16.33;;;10.33;;
13641;SDS011;6894;52.196;9.904;2023-06-22T03:32:40;18.13;;;10.03;;
13641;SDS011;6894;52.196;9.904;2023-06-22T03:35:08;15.70;;;8.97;;
13641;SDS011;6894;52.196;9.904;2023-06-22T03:37:37;9.87;;;8.70;;
13641;SDS011;6894;52.196;9.904;2023-06-22T03:40:05;16.20;;;9.13;;
13641;SDS011;6894;52.196;9.904;2023-06-22T03:42:34;14.80;;;9.23;;
13641;SDS011;6894;52.196;9.904;2023-06-22T03:45:01;12.03;;;8.83;;
13641;SDS011;6894;52.196;9.904;2023-06-22T03:47:29;14.50;;;10.00;;
13641;SDS011;6894;52.196;9.904;2023-06-22T03:49:56;12.67;;;9.90;;
13641;SDS011;6894;52.196;9.904;2023-06-22T03:52:22;13.70;;;9.90;;
13641;SDS011;6894;52.196;9.904;2023-06-22T03:54:50;13.83;;;10.03;;
13641;SDS011;6894;52.196;9.904;2023-06-22T03:57:18;16.57;;;10.07;;
13641;SDS011;6894;52.196;9.904;2023-06-22T03:59:46;10.20;;;8.83;;
13641;SDS011;6894;52.196;9.904;2023-06-22T04:02:12;12.47;;;10.03;;
13641;SDS011;6894;52.196;9.904;2023-06-22T04:04:39;12.17;;;10.47;;
13641;SDS011;6894;52.196;9.904;2023-06-22T04:07:06;13.93;;;10.97;;
13641;SDS011;6894;52.196;9.904;2023-06-22T04:09:33;16.73;;;11.53;;
13641;SDS011;6894;52.196;9.904;2023-06-22T04:12:00;10.70;;;9.70;;
13641;SDS011;6894;52.196;9.904;2023-06-22T04:14:27;14.77;;;10.50;;
13641;SDS011;6894;52.196;9.904;2023-06-22T04:16:55;11.50;;;10.30;;
13641;SDS011;6894;52.196;9.904;2023-06-22T04:19:23;12.00;;;10.80;;
13641;SDS011;6894;52.196;9.904;2023-06-22T04:21:50;12.63;;;11.17;;
13641;SDS011;6894;52.196;9.904;2023-06-22T04:24:16;14.57;;;11.87;;
13641;SDS011;6894;52.196;9.904;2023-06-22T04:26:43;15.60;;;11.70;;
13641;SDS011;6894;52.196;9.904;2023-06-22T04:29:10;14.27;;;12.90;;
13641;SDS011;6894;52.196;9.904;2023-06-22T04:31:37;14.03;;;11.23;;
13641;SDS011;6894;52.196;9.904;2023-06-22T04:34:06;14.30;;;13.00;;
13641;SDS011;6894;52.196;9.904;2023-06-22T04:36:34;13.73;;;12.33;;
13641;SDS011;6894;52.196;9.904;2023-06-22T04:39:02;15.50;;;11.40;;
13641;SDS011;6894;52.196;9.904;2023-06-22T04:41:30;13.90;;;12.50;;
13641;SDS011;6894;52.196;9.904;2023-06-22T04:44:06;12.57;;;11.30;;
13641;SDS011;6894;52.196;9.904;2023-06-22T04:46:34;14.67;;;10.93;;
13641;SDS011;6894;52.196;9.904;2023-06-22T04:49:03;13.03;;;11.73;;
13641;SDS011;6894;52.196;9.904;2023-06-22T04:51:36;13.77;;;12.30;;
13641;SDS011;6894;52.196;9.904;2023-06-22T04:54:06;18.90;;;13.70;;
13641;SDS011;6894;52.196;9.904;2023-06-22T04:56:34;13.03;;;11.57;;
13641;SDS011;6894;52.196;9.904;2023-06-22T04:59:02;13.67;;;12.37;;
13641;SDS011;6894;52.196;9.904;2023-06-22T05:01:29;18.97;;;14.53;;
13641;SDS011;6894;52.196;9.904;2023-06-22T05:03:57;15.33;;;13.20;;
13641;SDS011;6894;52.196;9.904;2023-06-22T05:06:27;17.97;;;14.80;;
13641;SDS011;6894;52.196;9.904;2023-06-22T05:08:55;17.70;;;13.60;;
13641;SDS011;6894;52.196;9.904;2023-06-22T05:11:23;17.53;;;15.70;;
13641;SDS011;6894;52.196;9.904;2023-06-22T05:13:50;15.27;;;13.77;;
13641;SDS011;6894;52.196;9.904;2023-06-22T05:16:17;17.80;;;14.47;;
13641;SDS011;6894;52.196;9.904;2023-06-22T05:18:49;18.47;;;16.40;;
13641;SDS011;6894;52.196;9.904;2023-06-22T05:21:23;17.53;;;15.63;;
13641;SDS011;6894;52.196;9.904;2023-06-22T05:23:53;18.23;;;16.53;;
13641;SDS011;6894;52.196;9.904;2023-06-22T05:26:21;17.87;;;16.07;;
13641;SDS011;6894;52.196;9.904;2023-06-22T05:28:48;19.33;;;16.27;;
13641;SDS011;6894;52.196;9.904;2023-06-22T05:31:15;20.10;;;16.87;;
13641;SDS011;6894;52.196;9.904;2023-06-22T05:33:45;19.37;;;17.50;;
13641;SDS011;6894;52.196;9.904;2023-06-22T05:36:12;19.27;;;17.27;;
13641;SDS011;6894;52.196;9.904;2023-06-22T05:38:40;20.53;;;17.53;;
13641;SDS011;6894;52.196;9.904;2023-06-22T05:41:08;20.73;;;18.40;;
13641;SDS011;6894;52.196;9.904;2023-06-22T05:43:35;16.53;;;15.03;;
13641;SDS011;6894;52.196;9.904;2023-06-22T05:46:02;18.37;;;16.47;;
13641;SDS011;6894;52.196;9.904;2023-06-22T05:48:29;17.23;;;15.47;;
13641;SDS011;6894;52.196;9.904;2023-06-22T05:50:56;17.23;;;15.47;;
13641;SDS011;6894;52.196;9.904;2023-06-22T05:53:23;20.50;;;17.30;;
13641;SDS011;6894;52.196;9.904;2023-06-22T05:55:50;16.53;;;14.83;;
13641;SDS011;6894;52.196;9.904;2023-06-22T05:58:18;19.63;;;17.70;;
13641;SDS011;6894;52.196;9.904;2023-06-22T06:00:45;17.87;;;16.07;;
13641;SDS011;6894;52.196;9.904;2023-06-22T06:03:12;15.97;;;14.43;;
13641;SDS011;6894;52.196;9.904;2023-06-22T06:05:42;17.00;;;15.30;;
13641;SDS011;6894;52.196;9.904;2023-06-22T06:08:09;19.47;;;15.80;;
13641;SDS011;6894;52.196;9.904;2023-06-22T06:10:37;14.57;;;13.17;;
13641;SDS011;6894;52.196;9.904;2023-06-22T06:13:04;17.10;;;15.20;;
13641;SDS011;6894;52.196;9.904;2023-06-22T06:15:32;17.47;;;15.87;;
13641;SDS011;6894;52.196;9.904;2023-06-22T06:18:01;16.60;;;15.03;;
13641;SDS011;6894;52.196;9.904;2023-06-22T06:20:30;15.47;;;14.07;;
13641;SDS011;6894;52.196;9.904;2023-06-22T06:22:57;17.27;;;13.77;;
13641;SDS011;6894;52.196;9.904;2023-06-22T06:25:24;16.60;;;14.80;;
13641;SDS011;6894;52.196;9.904;2023-06-22T06:27:51;18.13;;;15.63;;
13641;SDS011;6894;52.196;9.904;2023-06-22T06:30:19;17.13;;;15.43;;
13641;SDS011;6894;52.196;9.904;2023-06-22T06:32:49;16.63;;;14.93;;
13641;SDS011;6894;52.196;9.904;2023-06-22T06:35:16;20.13;;;15.30;;
13641;SDS011;6894;52.196;9.904;2023-06-22T06:37:43;16.00;;;14.53;;
13641;SDS011;6894;52.196;9.904;2023-06-22T06:40:12;14.63;;;13.13;;
13641;SDS011;6894;52.196;9.904;2023-06-22T06:42:39;15.10;;;13.60;;
13641;SDS011;6894;52.196;9.904;2023-06-22T06:45:09;16.07;;;14.50;;
13641;SDS011;6894;52.196;9.904;2023-06-22T06:47:36;17.83;;;14.73;;
13641;SDS011;6894;52.196;9.904;2023-06-22T06:50:05;15.53;;;14.13;;
13641;SDS011;6894;52.196;9.904;2023-06-22T06:52:32;13.90;;;12.57;;
13641;SDS011;6894;52.196;9.904;2023-06-22T06:54:59;14.07;;;12.63;;
13641;SDS011;6894;52.196;9.904;2023-06-22T06:57:26;15.37;;;13.87;;
13641;SDS011;6894;52.196;9.904;2023-06-22T06:59:54;15.07;;;11.80;;
13641;SDS011;6894;52.196;9.904;2023-06-22T07:02:21;12.87;;;11.53;;
13641;SDS011;6894;52.196;9.904;2023-06-22T07:04:48;13.20;;;11.30;;
13641;SDS011;6894;52.196;9.904;2023-06-22T07:07:18;12.50;;;11.30;;
13641;SDS011;6894;52.196;9.904;2023-06-22T07:09:44;13.20;;;11.80;;
13641;SDS011;6894;52.196;9.904;2023-06-22T07:12:11;12.67;;;11.37;;
13641;SDS011;6894;52.196;9.904;2023-06-22T07:14:38;12.03;;;10.47;;
13641;SDS011;6894;52.196;9.904;2023-06-22T07:17:05;11.87;;;10.60;;
13641;SDS011;6894;52.196;9.904;2023-06-22T07:19:32;12.83;;;11.53;;
13641;SDS011;6894;52.196;9.904;2023-06-22T07:21:59;11.40;;;10.30;;
13641;SDS011;6894;52.196;9.904;2023-06-22T07:24:27;11.13;;;10.07;;
13641;SDS011;6894;52.196;9.904;2023-06-22T07:26:54;10.77;;;9.83;;
13641;SDS011;6894;52.196;9.904;2023-06-22T07:29:22;10.07;;;9.07;;
13641;SDS011;6894;52.196;9.904;2023-06-22T07:31:49;12.03;;;10.20;;
13641;SDS011;6894;52.196;9.904;2023-06-22T07:34:17;10.97;;;9.83;;
13641;SDS011;6894;52.196;9.904;2023-06-22T07:36:44;10.07;;;9.17;;
13641;SDS011;6894;52.196;9.904;2023-06-22T07:39:11;11.30;;;10.10;;
13641;SDS011;6894;52.196;9.904;2023-06-22T07:41:39;12.10;;;10.90;;
13641;SDS011;6894;52.196;9.904;2023-06-22T07:44:06;14.40;;;11.50;;
13641;SDS011;6894;52.196;9.904;2023-06-22T07:46:33;14.13;;;12.70;;
13641;SDS011;6894;52.196;9.904;2023-06-22T07:49:00;16.67;;;11.40;;
13641;SDS011;6894;52.196;9.904;2023-06-22T07:51:28;13.40;;;12.00;;
13641;SDS011;6894;52.196;9.904;2023-06-22T07:53:55;14.17;;;12.83;;
13641;SDS011;6894;52.196;9.904;2023-06-22T07:56:21;11.67;;;10.57;;
13641;SDS011;6894;52.196;9.904;2023-06-22T07:58:49;14.33;;;11.10;;
13641;SDS011;6894;52.196;9.904;2023-06-22T08:01:16;11.53;;;10.53;;
13641;SDS011;6894;52.196;9.904;2023-06-22T08:03:45;11.07;;;9.97;;
13641;SDS011;6894;52.196;9.904;2023-06-22T08:06:13;11.13;;;9.93;;
13641;SDS011;6894;52.196;9.904;2023-06-22T08:08:40;10.97;;;9.87;;
13641;SDS011;6894;52.196;9.904;2023-06-22T08:11:07;11.23;;;10.23;;
13641;SDS011;6894;52.196;9.904;2023-06-22T08:13:34;10.37;;;9.37;;
13641;SDS011;6894;52.196;9.904;2023-06-22T08:16:02;12.47;;;10.77;;
13641;SDS011;6894;52.196;9.904;2023-06-22T08:18:29;11.40;;;10.30;;
13641;SDS011;6894;52.196;9.904;2023-06-22T08:20:56;12.30;;;11.10;;
13641;SDS011;6894;52.196;9.904;2023-06-22T08:23:23;12.97;;;11.57;;
13641;SDS011;6894;52.196;9.904;2023-06-22T08:25:50;12.67;;;11.47;;
13641;SDS011;6894;52.196;9.904;2023-06-22T08:28:17;11.23;;;10.23;;
13641;SDS011;6894;52.196;9.904;2023-06-22T08:30:43;10.90;;;9.80;;
13641;SDS011;6894;52.196;9.904;2023-06-22T08:33:11;10.27;;;9.27;;
13641;SDS011;6894;52.196;9.904;2023-06-22T08:35:38;12.27;;;10.30;;
13641;SDS011;6894;52.196;9.904;2023-06-22T08:38:05;12.03;;;10.83;;
13641;SDS011;6894;52.196;9.904;2023-06-22T08:40:32;12.07;;;10.43;;
13641;SDS011;6894;52.196;9.904;2023-06-22T08:42:59;10.60;;;9.70;;
13641;SDS011;6894;52.196;9.904;2023-06-22T08:45:26;13.27;;;10.77;;
13641;SDS011;6894;52.196;9.904;2023-06-22T08:47:52;10.93;;;9.93;;
13641;SDS011;6894;52.196;9.904;2023-06-22T08:50:21;15.07;;;10.30;;
13641;SDS011;6894;52.196;9.904;2023-06-22T08:52:48;11.00;;;9.93;;
13641;SDS011;6894;52.196;9.904;2023-06-22T08:55:15;11.77;;;10.60;;
13641;SDS011;6894;52.196;9.904;2023-06-22T08:57:41;11.57;;;10.50;;
13641;SDS011;6894;52.196;9.904;2023-06-22T09:00:09;11.57;;;10.33;;
13641;SDS011;6894;52.196;9.904;2023-06-22T09:02:43;12.43;;;10.20;;
13641;SDS011;6894;52.196;9.904;2023-06-22T09:05:10;10.47;;;9.57;;
13641;SDS011;6894;52.196;9.904;2023-06-22T09:07:38;11.17;;;10.17;;
13641;SDS011;6894;52.196;9.904;2023-06-22T09:10:05;11.73;;;10.30;;
13641;SDS011;6894;52.196;9.904;2023-06-22T09:12:33;13.07;;;11.13;;
13641;SDS011;6894;52.196;9.904;2023-06-22T09:15:02;12.67;;;11.37;;
13641;SDS011;6894;52.196;9.904;2023-06-22T09:17:29;11.70;;;10.50;;
13641;SDS011;6894;52.196;9.904;2023-06-22T09:19:56;11.00;;;10.10;;
13641;SDS011;6894;52.196;9.904;2023-06-22T09:22:23;11.90;;;10.80;;
13641;SDS011;6894;52.196;9.904;2023-06-22T09:24:55;10.80;;;9.80;;
13641;SDS011;6894;52.196;9.904;2023-06-22T09:27:22;12.15;;;10.95;;
13641;SDS011;6894;52.196;9.904;2023-06-22T09:29:49;12.20;;;11.00;;
13641;SDS011;6894;52.196;9.904;2023-06-22T09:32:15;13.37;;;11.73;;
13641;SDS011;6894;52.196;9.904;2023-06-22T09:34:42;14.07;;;12.63;;
13641;SDS011;6894;52.196;9.904;2023-06-22T09:37:09;12.80;;;11.25;;
13641;SDS011;6894;52.196;9.904;2023-06-22T09:39:36;13.18;;;11.80;;
13641;SDS011;6894;52.196;9.904;2023-06-22T09:42:04;13.65;;;12.20;;
13641;SDS011;6894;52.196;9.904;2023-06-22T09:44:32;13.75;;;12.18;;
13641;SDS011;6894;52.196;9.904;2023-06-22T09:46:58;13.05;;;11.75;;
13641;SDS011;6894;52.196;9.904;2023-06-22T09:49:25;13.43;;;12.13;;
13641;SDS011;6894;52.196;9.904;2023-06-22T09:51:52;15.63;;;11.45;;
13641;SDS011;6894;52.196;9.904;2023-06-22T09:54:19;12.73;;;11.43;;
13641;SDS011;6894;52.196;9.904;2023-06-22T09:56:45;13.80;;;12.40;;
13641;SDS011;6894;52.196;9.904;2023-06-22T09:59:13;13.65;;;12.32;;
13641;SDS011;6894;52.196;9.904;2023-06-22T10:01:40;14.02;;;12.07;;
13641;SDS011;6894;52.196;9.904;2023-06-22T10:04:07;14.45;;;12.95;;
13641;SDS011;6894;52.196;9.904;2023-06-22T10:06:33;14.48;;;12.57;;
13641;SDS011;6894;52.196;9.904;2023-06-22T10:09:00;14.73;;;13.13;;
13641;SDS011;6894;52.196;9.904;2023-06-22T10:11:27;16.60;;;14.93;;
13641;SDS011;6894;52.196;9.904;2023-06-22T10:13:55;14.48;;;13.05;;
13641;SDS011;6894;52.196;9.904;2023-06-22T10:16:29;14.00;;;12.68;;
13641;SDS011;6894;52.196;9.904;2023-06-22T10:18:56;14.38;;;13.18;;
13641;SDS011;6894;52.196;9.904;2023-06-22T10:21:23;15.20;;;13.75;;
13641;SDS011;6894;52.196;9.904;2023-06-22T10:23:52;15.60;;;13.82;;
13641;SDS011;6894;52.196;9.904;2023-06-22T10:26:18;16.42;;;14.82;;
13641;SDS011;6894;52.196;9.904;2023-06-22T10:28:45;16.80;;;15.25;;
13641;SDS011;6894;52.196;9.904;2023-06-22T10:31:12;16.70;;;15.20;;
13641;SDS011;6894;52.196;9.904;2023-06-22T10:33:40;17.60;;;15.93;;
13641;SDS011;6894;52.196;9.904;2023-06-22T10:36:08;17.38;;;15.77;;
13641;SDS011;6894;52.196;9.904;2023-06-22T10:38:35;19.05;;;15.93;;
13641;SDS011;6894;52.196;9.904;2023-06-22T10:41:02;17.05;;;15.48;;
13641;SDS011;6894;52.196;9.904;2023-06-22T10:43:29;18.25;;;16.60;;
13641;SDS011;6894;52.196;9.904;2023-06-22T10:45:55;18.88;;;15.65;;
13641;SDS011;6894;52.196;9.904;2023-06-22T10:48:22;15.75;;;14.35;;
13641;SDS011;6894;52.196;9.904;2023-06-22T10:50:50;16.38;;;14.98;;
13641;SDS011;6894;52.196;9.904;2023-06-22T10:53:18;16.73;;;15.20;;
13641;SDS011;6894;52.196;9.904;2023-06-22T10:55:45;18.35;;;16.55;;
13641;SDS011;6894;52.196;9.904;2023-06-22T10:58:11;16.95;;;15.38;;
13641;SDS011;6894;52.196;9.904;2023-06-22T11:00:38;18.42;;;16.73;;
13641;SDS011;6894;52.196;9.904;2023-06-22T11:03:05;17.00;;;15.40;;
13641;SDS011;6894;52.196;9.904;2023-06-22T11:05:32;17.65;;;16.13;;
13641;SDS011;6894;52.196;9.904;2023-06-22T11:08:00;16.50;;;15.02;;
13641;SDS011;6894;52.196;9.904;2023-06-22T11:10:26;17.55;;;16.15;;
13641;SDS011;6894;52.196;9.904;2023-06-22T11:12:53;16.63;;;15.27;;
13641;SDS011;6894;52.196;9.904;2023-06-22T11:15:20;17.75;;;16.00;;
13641;SDS011;6894;52.196;9.904;2023-06-22T11:17:47;17.95;;;16.35;;
13641;SDS011;6894;52.196;9.904;2023-06-22T11:20:14;19.58;;;17.77;;
13641;SDS011;6894;52.196;9.904;2023-06-22T11:22:41;20.20;;;16.45;;
13641;SDS011;6894;52.196;9.904;2023-06-22T11:25:09;18.58;;;16.88;;
13641;SDS011;6894;52.196;9.904;2023-06-22T11:27:37;17.98;;;16.38;;
13641;SDS011;6894;52.196;9.904;2023-06-22T11:30:05;16.75;;;15.35;;
13641;SDS011;6894;52.196;9.904;2023-06-22T11:32:32;16.98;;;15.25;;
13641;SDS011;6894;52.196;9.904;2023-06-22T11:34:59;15.35;;;14.05;;
13641;SDS011;6894;52.196;9.904;2023-06-22T11:37:26;15.98;;;14.55;;
13641;SDS011;6894;52.196;9.904;2023-06-22T11:39:53;16.00;;;14.65;;
13641;SDS011;6894;52.196;9.904;2023-06-22T11:42:21;16.83;;;15.43;;
13641;SDS011;6894;52.196;9.904;2023-06-22T11:44:50;16.40;;;15.00;;
13641;SDS011;6894;52.196;9.904;2023-06-22T11:47:17;18.35;;;16.92;;
13641;SDS011;6894;52.196;9.904;2023-06-22T11:49:43;15.65;;;14.32;;
13641;SDS011;6894;52.196;9.904;2023-06-22T11:52:10;15.38;;;14.18;;
13641;SDS011;6894;52.196;9.904;2023-06-22T11:54:37;15.10;;;13.63;;
13641;SDS011;6894;52.196;9.904;2023-06-22T11:57:04;13.63;;;12.60;;
13641;SDS011;6894;52.196;9.904;2023-06-22T11:59:32;15.07;;;13.70;;
13641;SDS011;6894;52.196;9.904;2023-06-22T12:01:59;14.82;;;13.68;;
13641;SDS011;6894;52.196;9.904;2023-06-22T12:04:26;15.57;;;14.10;;
13641;SDS011;6894;52.196;9.904;2023-06-22T12:06:52;15.90;;;14.52;;
13641;SDS011;6894;52.196;9.904;2023-06-22T12:09:19;14.57;;;13.18;;
13641;SDS011;6894;52.196;9.904;2023-06-22T12:11:46;12.77;;;11.77;;
13641;SDS011;6894;52.196;9.904;2023-06-22T12:14:12;14.50;;;13.07;;
13641;SDS011;6894;52.196;9.904;2023-06-22T12:16:41;12.13;;;11.20;;
13641;SDS011;6894;52.196;9.904;2023-06-22T12:19:09;13.05;;;11.95;;
13641;SDS011;6894;52.196;9.904;2023-06-22T12:21:36;13.23;;;12.02;;
13641;SDS011;6894;52.196;9.904;2023-06-22T12:24:04;13.07;;;12.05;;
13641;SDS011;6894;52.196;9.904;2023-06-22T12:26:31;14.18;;;12.98;;
13641;SDS011;6894;52.196;9.904;2023-06-22T12:28:57;13.98;;;12.77;;
13641;SDS011;6894;52.196;9.904;2023-06-22T12:31:24;12.95;;;11.85;;
13641;SDS011;6894;52.196;9.904;2023-06-22T12:33:52;13.40;;;12.23;;
13641;SDS011;6894;52.196;9.904;2023-06-22T12:36:19;14.00;;;12.85;;
13641;SDS011;6894;52.196;9.904;2023-06-22T12:38:46;13.70;;;12.55;;
13641;SDS011;6894;52.196;9.904;2023-06-22T12:41:12;12.88;;;11.88;;
13641;SDS011;6894;52.196;9.904;2023-06-22T12:43:40;12.13;;;11.10;;
13641;SDS011;6894;52.196;9.904;2023-06-22T12:46:06;14.23;;;12.98;;
13641;SDS011;6894;52.196;9.904;2023-06-22T12:48:33;14.18;;;13.07;;
13641;SDS011;6894;52.196;9.904;2023-06-22T12:51:07;13.68;;;12.55;;
13641;SDS011;6894;52.196;9.904;2023-06-22T12:53:34;13.63;;;12.48;;
13641;SDS011;6894;52.196;9.904;2023-06-22T12:56:01;14.38;;;13.02;;
13641;SDS011;6894;52.196;9.904;2023-06-22T12:58:28;13.18;;;12.20;;
13641;SDS011;6894;52.196;9.904;2023-06-22T13:00:55;12.98;;;12.07;;
13641;SDS011;6894;52.196;9.904;2023-06-22T13:03:22;12.50;;;11.50;;
13641;SDS011;6894;52.196;9.904;2023-06-22T13:05:50;12.20;;;11.25;;
13641;SDS011;6894;52.196;9.904;2023-06-22T13:08:18;11.55;;;10.65;;
13641;SDS011;6894;52.196;9.904;2023-06-22T13:10:45;12.57;;;11.35;;
13641;SDS011;6894;52.196;9.904;2023-06-22T13:13:12;11.43;;;10.52;;
13641;SDS011;6894;52.196;9.904;2023-06-22T13:15:39;10.85;;;10.07;;
13641;SDS011;6894;52.196;9.904;2023-06-22T13:18:05;11.10;;;10.13;;
13641;SDS011;6894;52.196;9.904;2023-06-22T13:20:32;11.35;;;10.55;;
13641;SDS011;6894;52.196;9.904;2023-06-22T13:22:59;10.43;;;9.60;;
13641;SDS011;6894;52.196;9.904;2023-06-22T13:25:27;10.98;;;10.02;;
13641;SDS011;6894;52.196;9.904;2023-06-22T13:27:54;9.65;;;8.95;;
13641;SDS011;6894;52.196;9.904;2023-06-22T13:30:21;10.52;;;9.63;;
13641;SDS011;6894;52.196;9.904;2023-06-22T13:32:48;9.43;;;8.63;;
13641;SDS011;6894;52.196;9.904;2023-06-22T13:35:15;10.40;;;9.38;;
13641;SDS011;6894;52.196;9.904;2023-06-22T13:37:41;9.63;;;8.93;;
13641;SDS011;6894;52.196;9.904;2023-06-22T13:40:08;9.77;;;8.98;;
13641;SDS011;6894;52.196;9.904;2023-06-22T13:42:37;10.20;;;9.35;;
13641;SDS011;6894;52.196;9.904;2023-06-22T13:45:04;9.63;;;8.90;;
13641;SDS011;6894;52.196;9.904;2023-06-22T13:47:32;10.35;;;9.45;;
13641;SDS011;6894;52.196;9.904;2023-06-22T13:49:59;10.02;;;9.23;;
13641;SDS011;6894;52.196;9.904;2023-06-22T13:52:26;10.68;;;9.80;;
13641;SDS011;6894;52.196;9.904;2023-06-22T13:54:52;9.93;;;9.15;;
13641;SDS011;6894;52.196;9.904;2023-06-22T13:57:19;10.70;;;9.80;;
13641;SDS011;6894;52.196;9.904;2023-06-22T13:59:47;10.57;;;9.75;;
13641;SDS011;6894;52.196;9.904;2023-06-22T14:02:14;10.30;;;9.48;;
13641;SDS011;6894;52.196;9.904;2023-06-22T14:04:41;9.77;;;8.88;;
13641;SDS011;6894;52.196;9.904;2023-06-22T14:07:07;10.85;;;9.85;;
13641;SDS011;6894;52.196;9.904;2023-06-22T14:09:34;11.00;;;10.15;;
13641;SDS011;6894;52.196;9.904;2023-06-22T14:12:03;11.55;;;10.55;;
13641;SDS011;6894;52.196;9.904;2023-06-22T14:14:30;10.48;;;9.75;;
13641;SDS011;6894;52.196;9.904;2023-06-22T14:16:59;11.18;;;10.38;;
13641;SDS011;6894;52.196;9.904;2023-06-22T14:19:26;11.07;;;10.18;;
13641;SDS011;6894;52.196;9.904;2023-06-22T14:21:52;11.35;;;10.38;;
13641;SDS011;6894;52.196;9.904;2023-06-22T14:24:19;10.70;;;9.90;;
13641;SDS011;6894;52.196;9.904;2023-06-22T14:26:46;9.98;;;9.20;;
13641;SDS011;6894;52.196;9.904;2023-06-22T14:29:13;11.60;;;10.50;;
13641;SDS011;6894;52.196;9.904;2023-06-22T14:31:39;10.73;;;9.90;;
13641;SDS011;6894;52.196;9.904;2023-06-22T14:34:08;10.60;;;9.80;;
13641;SDS011;6894;52.196;9.904;2023-06-22T14:36:34;10.80;;;9.90;;
13641;SDS011;6894;52.196;9.904;2023-06-22T14:39:01;9.63;;;8.73;;
13641;SDS011;6894;52.196;9.904;2023-06-22T14:41:28;10.93;;;10.13;;
13641;SDS011;6894;52.196;9.904;2023-06-22T14:43:55;10.88;;;9.98;;